createdAt,value
2022-12-11T00:00:48.491Z,43.57
2022-12-11T00:03:19.996Z,42.63
2022-12-11T00:05:49.917Z,43.40
2022-12-11T00:08:19.762Z,47.67
2022-12-11T00:10:51.242Z,44.60
2022-12-11T00:13:21.028Z,49.57
2022-12-11T00:15:53.408Z,43.43
2022-12-11T00:18:23.255Z,44.90
2022-12-11T00:20:53.015Z,46.00
2022-12-11T00:23:22.807Z,44.20
2022-12-11T00:25:52.758Z,43.67
2022-12-11T00:28:22.547Z,43.57
2022-12-11T00:30:55.418Z,43.03
2022-12-11T00:33:25.229Z,47.30
2022-12-11T00:35:54.986Z,41.83
2022-12-11T00:38:24.746Z,46.00
2022-12-11T00:40:54.618Z,45.50
2022-12-11T00:43:24.394Z,48.03
2022-12-11T00:45:56.877Z,45.10
2022-12-11T00:48:26.718Z,51.20
2022-12-11T00:50:56.634Z,44.80
2022-12-11T00:53:26.538Z,48.13
2022-12-11T00:55:56.426Z,47.30
2022-12-11T00:58:26.307Z,48.10
2022-12-11T01:00:59.049Z,50.20
2022-12-11T01:03:28.938Z,51.03
2022-12-11T01:05:58.727Z,44.17
2022-12-11T01:08:28.668Z,46.77
2022-12-11T01:11:02.961Z,48.57
2022-12-11T01:13:32.746Z,52.70
2022-12-11T01:16:10.284Z,49.43
2022-12-11T01:18:40.398Z,50.30
2022-12-11T01:21:11.778Z,47.40
2022-12-11T01:23:42.480Z,53.63
2022-12-11T01:26:14.995Z,57.63
2022-12-11T01:28:45.840Z,47.40
2022-12-11T01:31:20.198Z,46.70
2022-12-11T01:33:50.040Z,54.20
2022-12-11T01:36:22.154Z,60.80
2022-12-11T01:38:54.440Z,53.07
2022-12-11T01:41:24.676Z,53.03
2022-12-11T01:44:02.924Z,52.83
2022-12-11T01:46:36.610Z,50.23
2022-12-11T01:49:08.865Z,53.73
2022-12-11T01:51:43.247Z,53.03
2022-12-11T01:54:17.058Z,53.10
2022-12-11T01:56:48.686Z,55.63
2022-12-11T01:59:21.704Z,56.70
2022-12-11T02:01:57.801Z,50.63
2022-12-11T02:04:28.117Z,49.93
2022-12-11T02:06:58.564Z,52.03
2022-12-11T02:09:31.950Z,55.43
2022-12-11T02:12:06.332Z,48.83
2022-12-11T02:14:45.934Z,58.17
2022-12-11T02:17:23.327Z,45.90
2022-12-11T02:20:05.421Z,54.07
2022-12-11T02:22:55.740Z,54.30
2022-12-11T02:25:34.146Z,51.40
2022-12-11T02:28:21.290Z,52.60
2022-12-11T02:30:57.212Z,52.23
2022-12-11T02:33:39.896Z,53.63
2022-12-11T02:36:12.887Z,51.93
2022-12-11T02:38:50.660Z,56.47
2022-12-11T02:41:23.089Z,49.43
2022-12-11T02:43:58.107Z,57.93
2022-12-11T02:46:29.070Z,53.73
2022-12-11T02:48:59.816Z,52.67
2022-12-11T02:51:37.016Z,48.43
2022-12-11T02:54:09.803Z,55.77
2022-12-11T02:56:45.037Z,50.50
2022-12-11T02:59:21.858Z,52.53
2022-12-11T03:01:51.779Z,53.33
2022-12-11T03:04:24.921Z,53.90
2022-12-11T03:07:00.064Z,57.77
2022-12-11T03:09:30.390Z,56.83
2022-12-11T03:12:00.248Z,55.53
2022-12-11T03:14:32.741Z,58.03
2022-12-11T03:17:10.988Z,51.03
2022-12-11T03:19:44.630Z,50.27
2022-12-11T03:22:19.385Z,52.13
2022-12-11T03:24:53.887Z,47.13
2022-12-11T03:27:33.232Z,49.43
2022-12-11T03:30:10.706Z,56.47
2022-12-11T03:32:47.403Z,51.30
2022-12-11T03:35:22.520Z,51.93
2022-12-11T03:37:55.025Z,52.10
2022-12-11T03:40:28.460Z,48.00
2022-12-11T03:43:00.624Z,48.63
2022-12-11T03:45:33.311Z,48.30
2022-12-11T03:48:05.614Z,45.53
2022-12-11T03:50:37.422Z,43.93
2022-12-11T03:53:08.623Z,43.80
2022-12-11T03:55:40.484Z,47.10
2022-12-11T03:58:10.818Z,45.47
2022-12-11T04:00:43.265Z,49.40
2022-12-11T04:03:16.555Z,45.63
2022-12-11T04:05:48.918Z,49.23
2022-12-11T04:08:20.741Z,46.33
2022-12-11T04:11:10.846Z,45.40
2022-12-11T04:13:41.084Z,49.70
2022-12-11T04:16:11.017Z,46.77
2022-12-11T04:18:53.310Z,44.97
2022-12-11T04:21:39.429Z,42.70
2022-12-11T04:24:19.189Z,46.17
2022-12-11T04:26:50.682Z,46.40
2022-12-11T04:29:20.496Z,45.27
2022-12-11T04:31:53.415Z,48.70
2022-12-11T04:34:23.304Z,51.47
2022-12-11T04:36:53.233Z,46.80
2022-12-11T04:39:23.081Z,46.40
2022-12-11T04:41:52.903Z,47.20
2022-12-11T04:44:22.726Z,47.07
2022-12-11T04:46:55.178Z,52.40
2022-12-11T04:49:24.995Z,49.17
2022-12-11T04:51:54.827Z,48.03
2022-12-11T04:54:24.915Z,47.67
2022-12-11T04:56:54.746Z,43.40
2022-12-11T04:59:24.683Z,45.73
2022-12-11T05:01:57.680Z,48.20
2022-12-11T05:04:27.567Z,46.33
2022-12-11T05:06:57.414Z,53.20
2022-12-11T05:09:27.450Z,51.37
2022-12-11T05:11:57.487Z,50.83
2022-12-11T05:14:27.636Z,49.00
2022-12-11T05:17:00.423Z,50.97
2022-12-11T05:19:30.592Z,45.50
2022-12-11T05:22:00.410Z,54.93
2022-12-11T05:24:30.237Z,49.90
2022-12-11T05:27:02.877Z,56.57
2022-12-11T05:29:32.704Z,56.43
2022-12-11T05:32:05.126Z,53.77
2022-12-11T05:34:35.187Z,54.27
2022-12-11T05:37:05.057Z,49.47
2022-12-11T05:39:34.875Z,53.20
2022-12-11T05:42:04.703Z,52.50
2022-12-11T05:44:34.529Z,51.33
2022-12-11T05:47:07.025Z,53.63
2022-12-11T05:49:36.822Z,50.10
2022-12-11T05:52:06.801Z,54.50
2022-12-11T05:54:36.637Z,48.60
2022-12-11T05:57:06.491Z,53.40
2022-12-11T05:59:36.357Z,50.90
2022-12-11T06:02:08.852Z,50.30
2022-12-11T06:04:38.786Z,51.83
2022-12-11T06:07:08.620Z,48.70
2022-12-11T06:09:38.470Z,55.50
2022-12-11T06:12:08.595Z,48.23
2022-12-11T06:14:38.458Z,50.63
2022-12-11T06:17:10.901Z,48.13
2022-12-11T06:19:41.026Z,50.33
2022-12-11T06:22:10.861Z,53.87
2022-12-11T06:24:40.838Z,50.13
2022-12-11T06:27:10.653Z,48.93
2022-12-11T06:29:40.489Z,49.30
2022-12-11T06:32:12.968Z,48.10
2022-12-11T06:34:43.005Z,48.23
2022-12-11T06:37:12.808Z,47.50
2022-12-11T06:39:42.693Z,51.50
2022-12-11T06:42:13.523Z,49.30
2022-12-11T06:44:43.372Z,55.80
2022-12-11T06:47:15.810Z,49.43
2022-12-11T06:49:45.658Z,49.30
2022-12-11T06:52:18.574Z,55.27
2022-12-11T06:54:48.761Z,53.70
2022-12-11T06:57:19.488Z,54.63
2022-12-11T06:59:49.536Z,59.33
2022-12-11T07:02:23.337Z,58.33
2022-12-11T07:04:55.273Z,57.15
2022-12-11T07:07:25.307Z,53.90
2022-12-11T07:09:55.238Z,55.80
2022-12-11T07:12:25.104Z,58.20
2022-12-11T07:14:54.925Z,61.70
2022-12-11T07:17:27.395Z,57.00
2022-12-11T07:19:58.045Z,58.43
2022-12-11T07:22:27.834Z,65.30
2022-12-11T07:24:57.664Z,59.47
2022-12-11T07:27:27.483Z,61.60
2022-12-11T07:29:57.893Z,60.10
2022-12-11T07:32:30.384Z,58.00
2022-12-11T07:35:00.314Z,68.73
2022-12-11T07:37:30.188Z,65.97
2022-12-11T07:40:00.093Z,56.67
2022-12-11T07:42:30.972Z,65.10
2022-12-11T07:45:00.995Z,58.85
2022-12-11T07:47:33.525Z,65.13
2022-12-11T07:50:03.458Z,63.65
2022-12-11T07:52:36.236Z,59.27
2022-12-11T07:55:06.705Z,55.80
2022-12-11T07:57:36.593Z,66.15
2022-12-11T08:00:07.540Z,60.67
2022-12-11T08:02:44.887Z,53.87
2022-12-11T08:05:15.004Z,56.23
2022-12-11T08:07:44.949Z,57.77
2022-12-11T08:10:14.873Z,51.28
2022-12-11T08:12:44.933Z,53.03
2022-12-11T08:15:14.802Z,51.77
2022-12-11T08:17:47.288Z,50.60
2022-12-11T08:20:17.200Z,58.10
2022-12-11T08:22:47.061Z,52.10
2022-12-11T08:25:16.914Z,52.73
2022-12-11T08:27:46.866Z,52.37
2022-12-11T08:30:17.149Z,55.77
2022-12-11T08:32:49.789Z,53.43
2022-12-11T08:35:19.766Z,58.50
2022-12-11T08:37:49.698Z,56.30
2022-12-11T08:40:20.405Z,61.27
2022-12-11T08:42:50.353Z,60.53
2022-12-11T08:45:20.277Z,57.83
2022-12-11T08:47:53.990Z,55.03
2022-12-11T08:50:23.931Z,55.13
2022-12-11T08:52:53.973Z,53.53
2022-12-11T08:55:24.810Z,51.50
2022-12-11T08:57:54.726Z,85.20
2022-12-11T09:00:24.703Z,59.53
2022-12-11T09:02:57.263Z,54.40
2022-12-11T09:05:27.242Z,55.53
2022-12-11T09:07:57.200Z,50.53
2022-12-11T09:10:27.258Z,51.10
2022-12-11T09:12:58.123Z,56.30
2022-12-11T09:15:28.136Z,55.00
2022-12-11T09:18:00.719Z,54.37
2022-12-11T09:20:30.687Z,59.30
2022-12-11T09:23:00.639Z,62.20
2022-12-11T09:25:30.577Z,65.63
2022-12-11T09:28:00.483Z,70.30
2022-12-11T09:30:30.495Z,59.73
2022-12-11T09:33:03.307Z,57.73
2022-12-11T09:35:33.203Z,56.27
2022-12-11T09:38:03.164Z,56.70
2022-12-11T09:40:34.465Z,93.63
2022-12-11T09:43:09.460Z,66.40
2022-12-11T09:45:39.454Z,60.77
2022-12-11T09:48:14.063Z,62.50
2022-12-11T09:50:44.725Z,55.23
2022-12-11T09:53:19.322Z,109.20
2022-12-11T09:55:56.312Z,76.67
2022-12-11T09:58:34.593Z,67.83
2022-12-11T10:01:11.919Z,65.30
2022-12-11T10:03:58.364Z,61.47
2022-12-11T10:06:35.954Z,61.20
2022-12-11T10:09:16.953Z,67.83
2022-12-11T10:11:59.173Z,57.83
2022-12-11T10:14:38.662Z,59.90
2022-12-11T10:17:14.268Z,51.00
2022-12-11T10:19:46.833Z,53.67
2022-12-11T10:22:23.298Z,52.80
2022-12-11T10:25:14.266Z,50.67
2022-12-11T10:27:45.241Z,55.93
2022-12-11T10:30:19.519Z,55.73
2022-12-11T10:32:55.256Z,52.90
2022-12-11T10:35:36.301Z,55.10
2022-12-11T10:38:15.306Z,53.63
2022-12-11T10:40:47.830Z,50.10
2022-12-11T10:43:18.004Z,51.73
2022-12-11T10:45:55.523Z,52.13
2022-12-11T10:48:25.770Z,51.90
2022-12-11T10:51:07.176Z,50.77
2022-12-11T10:53:37.640Z,49.57
2022-12-11T10:56:09.432Z,50.07
2022-12-11T10:58:43.299Z,47.10
2022-12-11T11:01:17.837Z,50.10
2022-12-11T11:03:58.120Z,48.93
2022-12-11T11:06:30.865Z,53.23
2022-12-11T11:09:03.086Z,51.40
2022-12-11T11:11:36.830Z,46.07
2022-12-11T11:14:16.597Z,53.10
2022-12-11T11:16:48.743Z,51.50
2022-12-11T11:19:25.966Z,51.80
2022-12-11T11:22:01.877Z,52.47
2022-12-11T11:24:37.889Z,52.67
2022-12-11T11:27:15.930Z,48.97
2022-12-11T11:29:52.825Z,51.30
2022-12-11T11:32:26.354Z,46.80
2022-12-11T11:34:56.375Z,49.23
2022-12-11T11:37:34.797Z,48.97
2022-12-11T11:40:14.746Z,55.63
2022-12-11T11:42:50.226Z,80.87
2022-12-11T11:45:26.994Z,72.83
2022-12-11T11:48:11.117Z,81.70
2022-12-11T11:50:50.513Z,75.53
2022-12-11T11:53:29.870Z,71.33
2022-12-11T11:56:08.484Z,121.73
2022-12-11T11:58:44.591Z,56.43
2022-12-11T12:01:18.859Z,49.87
2022-12-11T12:03:50.574Z,53.87
2022-12-11T12:06:31.652Z,49.37
2022-12-11T12:09:13.072Z,44.93
2022-12-11T12:11:47.667Z,50.93
2022-12-11T12:14:51.100Z,52.23
2022-12-11T12:17:23.329Z,46.10
2022-12-11T12:20:04.390Z,50.67
2022-12-11T12:22:48.164Z,47.63
2022-12-11T12:25:29.895Z,51.00
2022-12-11T12:28:08.561Z,49.07
2022-12-11T12:30:48.412Z,48.63
2022-12-11T12:33:32.689Z,46.93
2022-12-11T12:36:09.023Z,52.60
2022-12-11T12:38:47.163Z,51.80
2022-12-11T12:41:25.432Z,53.50
2022-12-11T12:44:07.664Z,51.87
2022-12-11T12:46:52.326Z,47.67
2022-12-11T12:49:37.140Z,55.07
2022-12-11T12:52:13.284Z,55.37
2022-12-11T12:55:05.586Z,50.47
2022-12-11T12:57:41.389Z,48.93
2022-12-11T13:00:13.675Z,54.40
2022-12-11T13:02:53.860Z,52.47
2022-12-11T13:05:26.142Z,53.63
2022-12-11T13:08:00.026Z,47.53
2022-12-11T13:10:34.131Z,57.87
2022-12-11T13:13:08.303Z,52.53
2022-12-11T13:15:43.707Z,50.23
2022-12-11T13:18:33.607Z,50.30
2022-12-11T13:21:03.896Z,53.63
2022-12-11T13:23:36.123Z,62.47
2022-12-11T13:26:07.603Z,74.70
2022-12-11T13:28:51.930Z,67.80
2022-12-11T13:31:38.123Z,53.73
2022-12-11T13:34:18.989Z,73.87
2022-12-11T13:36:53.846Z,73.77
2022-12-11T13:39:27.737Z,66.00
2022-12-11T13:42:05.087Z,63.53
2022-12-11T13:44:42.085Z,55.77
2022-12-11T13:47:17.737Z,49.03
2022-12-11T13:49:51.617Z,54.00
2022-12-11T13:52:23.332Z,69.10
2022-12-11T13:54:55.545Z,71.20
2022-12-11T13:57:28.451Z,53.77
2022-12-11T14:00:02.287Z,54.00
2022-12-11T14:02:38.603Z,59.17
2022-12-11T14:05:13.048Z,63.57
2022-12-11T14:07:46.238Z,53.40
2022-12-11T14:10:20.990Z,59.70
2022-12-11T14:12:56.486Z,60.50
2022-12-11T14:15:29.545Z,54.63
2022-12-11T14:18:00.795Z,64.33
2022-12-11T14:20:33.800Z,60.13
2022-12-11T14:23:10.588Z,59.10
2022-12-11T14:25:40.466Z,62.77
2022-12-11T14:28:19.614Z,56.17
2022-12-11T14:30:54.507Z,57.47
2022-12-11T14:33:28.865Z,55.23
2022-12-11T14:35:59.250Z,53.90
2022-12-11T14:38:32.198Z,56.03
2022-12-11T14:41:06.352Z,58.60
2022-12-11T14:43:42.100Z,58.43
2022-12-11T14:46:21.700Z,62.00
2022-12-11T14:49:00.649Z,58.70
2022-12-11T14:51:36.602Z,61.13
2022-12-11T14:54:07.761Z,61.40
2022-12-11T14:56:38.100Z,64.17
2022-12-11T14:59:11.152Z,59.33
2022-12-11T15:01:43.714Z,82.63
2022-12-11T15:04:26.939Z,70.47
2022-12-11T15:06:56.880Z,57.90
2022-12-11T15:09:30.625Z,52.97
2022-12-11T15:12:11.233Z,52.50
2022-12-11T15:14:50.302Z,54.70
2022-12-11T15:17:23.605Z,55.30
2022-12-11T15:19:56.142Z,66.40
2022-12-11T15:22:33.127Z,57.60
2022-12-11T15:25:03.760Z,58.40
2022-12-11T15:27:36.899Z,55.00
2022-12-11T15:30:18.929Z,58.93
2022-12-11T15:32:51.510Z,55.03
2022-12-11T15:35:26.342Z,58.53
2022-12-11T15:37:57.309Z,65.87
2022-12-11T15:40:27.995Z,80.93
2022-12-11T15:42:58.752Z,56.23
2022-12-11T15:45:30.854Z,63.10
2022-12-11T15:48:03.400Z,58.43
2022-12-11T15:50:33.436Z,62.50
2022-12-11T15:53:03.328Z,56.63
2022-12-11T15:55:35.113Z,57.50
2022-12-11T15:58:09.963Z,54.87
2022-12-11T16:00:39.914Z,55.40
2022-12-11T16:03:14.037Z,53.43
2022-12-11T16:05:44.807Z,50.87
2022-12-11T16:08:17.212Z,51.40
2022-12-11T16:10:48.342Z,58.43
2022-12-11T16:13:18.552Z,63.33
2022-12-11T16:15:51.049Z,73.83
2022-12-11T16:18:26.548Z,111.93
2022-12-11T16:20:56.549Z,55.80
2022-12-11T16:23:29.329Z,45.33
2022-12-11T16:25:59.248Z,47.07
2022-12-11T16:28:29.165Z,43.47
2022-12-11T16:30:59.938Z,40.07
2022-12-11T16:33:32.581Z,41.97
2022-12-11T16:36:02.502Z,39.90
2022-12-11T16:38:32.437Z,39.87
2022-12-11T16:41:03.540Z,40.47
2022-12-11T16:43:34.906Z,42.87
2022-12-11T16:46:04.884Z,40.17
2022-12-11T16:48:37.450Z,40.43
2022-12-11T16:51:07.550Z,38.60
2022-12-11T16:53:37.541Z,43.17
2022-12-11T16:56:08.192Z,42.27
2022-12-11T16:58:38.284Z,40.77
2022-12-11T17:01:12.242Z,92.37
2022-12-11T17:03:46.026Z,153.50
2022-12-11T17:06:19.142Z,72.87
2022-12-11T17:08:49.656Z,50.00
2022-12-11T17:11:22.183Z,62.07
2022-12-11T17:13:56.151Z,61.63
2022-12-11T17:16:30.373Z,52.40
2022-12-11T17:19:03.510Z,49.00
2022-12-11T17:21:33.452Z,45.70
2022-12-11T17:24:03.435Z,49.40
2022-12-11T17:26:33.485Z,46.03
2022-12-11T17:29:03.586Z,50.13
2022-12-11T17:31:33.673Z,51.50
2022-12-11T17:34:06.731Z,54.90
2022-12-11T17:36:37.448Z,53.87
2022-12-11T17:39:07.443Z,54.00
2022-12-11T17:41:37.338Z,53.43
2022-12-11T17:44:07.280Z,55.30
2022-12-11T17:46:37.212Z,56.50
2022-12-11T17:49:09.774Z,55.13
2022-12-11T17:51:39.947Z,55.80
2022-12-11T17:54:09.964Z,48.83
2022-12-11T17:56:40.622Z,54.17
2022-12-11T17:59:10.561Z,38.60
2022-12-11T18:01:40.658Z,52.53
2022-12-11T18:04:13.297Z,53.40
2022-12-11T18:06:43.583Z,54.77
2022-12-11T18:09:13.483Z,53.20
2022-12-11T18:11:44.191Z,50.73
2022-12-11T18:14:17.350Z,53.67
2022-12-11T18:16:48.471Z,55.87
2022-12-11T18:19:22.776Z,55.70
2022-12-11T18:21:52.888Z,55.77
2022-12-11T18:24:25.854Z,51.57
2022-12-11T18:26:55.783Z,57.37
2022-12-11T18:29:25.711Z,53.97
2022-12-11T18:31:55.714Z,51.80
2022-12-11T18:34:28.446Z,53.30
2022-12-11T18:36:58.632Z,56.33
2022-12-11T18:39:28.717Z,54.70
2022-12-11T18:42:31.223Z,54.50
2022-12-11T18:44:48.562Z,54.40
2022-12-11T18:47:19.493Z,54.27
2022-12-11T18:49:52.078Z,59.47
2022-12-11T18:52:22.108Z,66.97
2022-12-11T18:54:52.408Z,60.67
2022-12-11T18:57:22.392Z,59.57
2022-12-11T18:59:54.123Z,60.10
2022-12-11T19:02:24.730Z,55.70
2022-12-11T19:04:57.355Z,54.60
2022-12-11T19:07:27.426Z,58.07
2022-12-11T19:09:57.379Z,57.10
2022-12-11T19:12:27.407Z,59.43
2022-12-11T19:14:57.502Z,60.80
2022-12-11T19:17:27.539Z,61.23
2022-12-11T19:20:05.345Z,78.60
2022-12-11T19:22:49.453Z,73.23
2022-12-11T19:25:19.527Z,74.93
2022-12-11T19:27:50.549Z,70.80
2022-12-11T19:30:20.540Z,77.40
2022-12-11T19:32:50.433Z,63.83
2022-12-11T19:35:22.961Z,70.80
2022-12-11T19:37:52.927Z,79.07
2022-12-11T19:40:26.250Z,71.20
2022-12-11T19:42:56.546Z,65.80
2022-12-11T19:45:26.437Z,76.23
2022-12-11T19:47:56.367Z,74.07
2022-12-11T19:50:28.904Z,63.40
2022-12-11T19:52:58.836Z,67.13
2022-12-11T19:55:28.923Z,66.40
2022-12-11T19:57:58.882Z,75.63
2022-12-11T20:00:28.851Z,70.07
2022-12-11T20:02:58.874Z,69.10
2022-12-11T20:05:31.378Z,72.45
2022-12-11T20:08:27.413Z,70.20
2022-12-11T20:10:51.751Z,66.70
2022-12-11T20:13:21.768Z,66.25
2022-12-11T20:15:52.119Z,63.60
2022-12-11T20:18:22.094Z,66.43
2022-12-11T20:20:54.595Z,63.88
2022-12-11T20:23:24.566Z,63.47
2022-12-11T20:25:58.781Z,59.13
2022-12-11T20:28:29.316Z,55.80
2022-12-11T20:31:06.699Z,57.40
2022-12-11T20:33:37.019Z,58.22
2022-12-11T20:36:13.772Z,64.23
2022-12-11T20:38:44.301Z,59.50
2022-12-11T20:41:16.955Z,58.63
2022-12-11T20:43:47.076Z,56.87
2022-12-11T20:46:18.608Z,59.30
2022-12-11T20:48:50.794Z,56.13
2022-12-11T20:51:26.628Z,56.67
2022-12-11T20:54:01.278Z,59.17
2022-12-11T20:56:33.194Z,57.40
2022-12-11T20:59:03.550Z,63.83
2022-12-11T21:01:36.794Z,61.28
2022-12-11T21:04:06.726Z,61.75
2022-12-11T21:06:42.130Z,62.97
2022-12-11T21:09:15.786Z,63.17
2022-12-11T21:11:46.783Z,61.40
2022-12-11T21:14:27.674Z,67.78
2022-12-11T21:16:58.023Z,74.60
2022-12-11T21:19:28.393Z,62.33
2022-12-11T21:21:58.377Z,56.10
2022-12-11T21:24:30.118Z,61.78
2022-12-11T21:27:01.917Z,60.97
2022-12-11T21:29:34.515Z,60.20
2022-12-11T21:32:04.455Z,61.38
2022-12-11T21:34:34.368Z,61.78
2022-12-11T21:37:04.244Z,63.17
2022-12-11T21:39:39.185Z,65.97
2022-12-11T21:42:09.401Z,62.80
2022-12-11T21:45:37.493Z,68.63
2022-12-11T21:47:31.647Z,63.67
2022-12-11T21:50:01.490Z,63.25
2022-12-11T21:52:31.258Z,63.22
2022-12-11T21:55:01.094Z,72.28
2022-12-11T21:57:30.968Z,70.15
2022-12-11T22:00:04.406Z,74.07
2022-12-11T22:02:41.910Z,72.05
2022-12-11T22:05:12.747Z,69.00
2022-12-11T22:07:42.775Z,64.75
2022-12-11T22:10:13.411Z,70.15
2022-12-11T22:12:43.181Z,74.40
2022-12-11T22:15:15.696Z,64.40
2022-12-11T22:17:45.599Z,69.82
2022-12-11T22:20:15.449Z,73.90
2022-12-11T22:22:46.728Z,65.50
2022-12-11T22:25:16.731Z,73.18
2022-12-11T22:27:46.739Z,67.00
2022-12-11T22:30:19.536Z,65.85
2022-12-11T22:32:51.330Z,64.20
2022-12-11T22:35:26.858Z,71.93
2022-12-11T22:37:57.174Z,68.45
2022-12-11T22:40:27.064Z,67.88
2022-12-11T22:42:57.056Z,65.25
2022-12-11T22:45:29.482Z,65.82
2022-12-11T22:47:59.282Z,60.53
2022-12-11T22:50:29.138Z,65.63
2022-12-11T22:52:58.908Z,56.70
2022-12-11T22:55:29.765Z,61.08
2022-12-11T22:57:59.569Z,64.13
2022-12-11T23:00:31.923Z,66.40
2022-12-11T23:03:02.200Z,67.45
2022-12-11T23:05:32.455Z,68.70
2022-12-11T23:08:02.405Z,61.65
2022-12-11T23:10:32.241Z,69.60
2022-12-11T23:13:01.986Z,67.07
2022-12-11T23:15:34.368Z,67.13
2022-12-11T23:18:04.585Z,61.05
2022-12-11T23:20:34.405Z,60.97
2022-12-11T23:23:04.152Z,56.30
2022-12-11T23:25:33.903Z,62.80
2022-12-11T23:28:03.826Z,56.13
2022-12-11T23:30:36.287Z,56.17
2022-12-11T23:33:06.581Z,57.42
2022-12-11T23:35:36.557Z,59.30
2022-12-11T23:38:06.438Z,54.45
2022-12-11T23:40:36.629Z,57.33
2022-12-11T23:43:06.557Z,55.50
2022-12-11T23:45:38.918Z,58.42
2022-12-11T23:48:08.707Z,64.40
2022-12-11T23:50:38.509Z,65.40
2022-12-11T23:53:08.305Z,58.60
2022-12-11T23:55:40.738Z,63.92
2022-12-11T23:58:10.855Z,60.92
